createdAt,value
2018-05-10T00:00:40.934Z,19.9
2018-05-10T00:01:40.968Z,19.89
2018-05-10T00:02:41.045Z,19.92
2018-05-10T00:03:41.001Z,19.9
2018-05-10T00:04:41.119Z,19.88
2018-05-10T00:05:41.105Z,19.92
2018-05-10T00:06:40.960Z,19.89
2018-05-10T00:07:41.039Z,19.89
2018-05-10T00:08:40.988Z,19.91
2018-05-10T00:09:40.985Z,19.89
2018-05-10T00:10:41.170Z,19.89
2018-05-10T00:11:40.893Z,19.91
2018-05-10T00:12:41.069Z,19.9
2018-05-10T00:13:40.984Z,19.88
2018-05-10T00:14:41.092Z,19.92
2018-05-10T00:15:41.123Z,19.89
2018-05-10T00:16:41.077Z,19.89
2018-05-10T00:17:41.000Z,19.91
2018-05-10T00:18:41.225Z,19.89
2018-05-10T00:19:41.077Z,19.88
2018-05-10T00:20:41.022Z,19.92
2018-05-10T00:21:41.395Z,19.89
2018-05-10T00:22:50.957Z,19.88
2018-05-10T00:23:41.226Z,19.9
2018-05-10T00:24:41.065Z,19.88
2018-05-10T00:25:41.089Z,19.88
2018-05-10T00:26:40.942Z,19.91
2018-05-10T00:27:40.896Z,19.88
2018-05-10T00:28:41.152Z,19.88
2018-05-10T00:29:41.112Z,19.91
2018-05-10T00:30:40.994Z,19.88
2018-05-10T00:31:41.129Z,19.88
2018-05-10T00:32:40.985Z,19.9
2018-05-10T00:33:40.907Z,19.88
2018-05-10T00:34:41.125Z,19.88
2018-05-10T00:35:41.005Z,19.9
2018-05-10T00:36:40.964Z,19.88
2018-05-10T00:37:41.172Z,19.87
2018-05-10T00:38:41.043Z,19.91
2018-05-10T00:39:40.969Z,19.88
2018-05-10T00:40:41.064Z,19.87
2018-05-10T00:41:40.954Z,19.91
2018-05-10T00:42:41.040Z,19.88
2018-05-10T00:43:40.970Z,19.88
2018-05-10T00:44:41.055Z,19.9
2018-05-10T00:45:41.161Z,19.88
2018-05-10T00:46:41.140Z,19.87
2018-05-10T00:47:41.034Z,19.91
2018-05-10T00:48:41.024Z,19.88
2018-05-10T00:49:40.839Z,19.88
2018-05-10T00:50:40.939Z,19.89
2018-05-10T00:51:40.981Z,19.88
2018-05-10T00:52:40.966Z,19.87
2018-05-10T00:53:41.142Z,19.9
2018-05-10T00:54:40.986Z,19.88
2018-05-10T00:55:40.936Z,19.87
2018-05-10T00:56:41.146Z,19.91
2018-05-10T00:57:40.947Z,19.87
2018-05-10T00:58:41.041Z,19.87
2018-05-10T00:59:41.020Z,19.89
2018-05-10T01:00:40.951Z,19.88
2018-05-10T01:01:40.877Z,19.86
2018-05-10T01:02:41.135Z,19.89
2018-05-10T01:03:40.934Z,19.88
2018-05-10T01:04:41.181Z,19.86
2018-05-10T01:05:41.065Z,19.89
2018-05-10T01:06:41.013Z,19.87
2018-05-10T01:07:40.940Z,19.86
2018-05-10T01:08:41.185Z,19.89
2018-05-10T01:09:41.034Z,19.88
2018-05-10T01:10:41.090Z,19.86
2018-05-10T01:11:41.009Z,19.9
2018-05-10T01:12:40.873Z,19.87
2018-05-10T01:13:41.033Z,19.85
2018-05-10T01:14:41.028Z,19.89
2018-05-10T01:15:41.157Z,19.87
2018-05-10T01:16:41.180Z,19.86
2018-05-10T01:17:40.908Z,19.89
2018-05-10T01:18:41.158Z,19.87
2018-05-10T01:19:41.136Z,19.86
2018-05-10T01:20:40.971Z,19.89
2018-05-10T01:21:40.946Z,19.86
2018-05-10T01:22:41.143Z,19.85
2018-05-10T01:23:40.888Z,19.89
2018-05-10T01:24:41.085Z,19.86
2018-05-10T01:25:40.944Z,19.86
2018-05-10T01:26:40.966Z,19.88
2018-05-10T01:27:41.087Z,19.87
2018-05-10T01:28:40.974Z,19.85
2018-05-10T01:29:40.959Z,19.89
2018-05-10T01:30:41.070Z,19.86
2018-05-10T01:31:41.071Z,19.86
2018-05-10T01:32:41.088Z,19.9
2018-05-10T01:33:41.216Z,19.87
2018-05-10T01:34:40.903Z,19.86
2018-05-10T01:35:41.122Z,19.88
2018-05-10T01:36:40.975Z,19.86
2018-05-10T01:37:41.144Z,19.85
2018-05-10T01:38:41.027Z,19.89
2018-05-10T01:39:41.163Z,19.87
2018-05-10T01:40:40.954Z,19.85
2018-05-10T01:41:41.081Z,19.87
2018-05-10T01:42:41.102Z,19.86
2018-05-10T01:43:41.146Z,19.85
2018-05-10T01:44:41.014Z,19.88
2018-05-10T01:45:40.971Z,19.85
2018-05-10T01:46:41.175Z,19.85
2018-05-10T01:47:41.188Z,19.88
2018-05-10T01:48:41.049Z,19.86
2018-05-10T01:49:41.001Z,19.85
2018-05-10T01:50:41.137Z,19.88
2018-05-10T01:51:41.120Z,19.86
2018-05-10T01:52:40.867Z,19.85
2018-05-10T01:53:41.011Z,19.88
2018-05-10T01:54:40.974Z,19.86
2018-05-10T01:55:41.113Z,19.84
2018-05-10T01:56:40.924Z,19.89
2018-05-10T01:57:41.100Z,19.85
2018-05-10T01:58:41.181Z,19.85
2018-05-10T01:59:41.069Z,19.88
2018-05-10T02:00:41.005Z,19.85
2018-05-10T02:01:40.953Z,19.84
2018-05-10T02:02:41.116Z,19.87
2018-05-10T02:03:41.120Z,19.86
2018-05-10T02:04:41.037Z,19.85
2018-05-10T02:05:41.107Z,19.88
2018-05-10T02:06:41.033Z,19.84
2018-05-10T02:07:40.906Z,19.85
2018-05-10T02:08:41.031Z,19.87
2018-05-10T02:09:40.913Z,19.85
2018-05-10T02:10:40.913Z,19.84
2018-05-10T02:11:41.037Z,19.87
2018-05-10T02:12:41.056Z,19.84
2018-05-10T02:13:41.085Z,19.83
2018-05-10T02:14:41.057Z,19.87
2018-05-10T02:15:41.056Z,19.85
2018-05-10T02:16:41.089Z,19.84
2018-05-10T02:17:40.909Z,19.88
2018-05-10T02:18:40.858Z,19.85
2018-05-10T02:19:41.114Z,19.84
2018-05-10T02:20:40.980Z,19.87
2018-05-10T02:21:41.116Z,19.85
2018-05-10T02:22:40.999Z,19.84
2018-05-10T02:23:40.975Z,19.87
2018-05-10T02:24:40.972Z,19.85
2018-05-10T02:25:41.028Z,19.84
2018-05-10T02:26:40.823Z,19.87
2018-05-10T02:27:41.023Z,19.85
2018-05-10T02:28:40.964Z,19.84
2018-05-10T02:29:40.939Z,19.87
2018-05-10T02:30:41.044Z,19.85
2018-05-10T02:31:41.136Z,19.84
2018-05-10T02:32:41.025Z,19.88
2018-05-10T02:33:40.993Z,19.85
2018-05-10T02:34:41.065Z,19.84
2018-05-10T02:35:41.114Z,19.87
2018-05-10T02:36:41.108Z,19.85
2018-05-10T02:37:40.949Z,19.85
2018-05-10T02:38:40.894Z,19.87
2018-05-10T02:39:41.137Z,19.85
2018-05-10T02:41:00.385Z,19.84
2018-05-10T02:41:40.931Z,19.87
2018-05-10T02:42:41.033Z,19.85
2018-05-10T02:43:40.926Z,19.84
2018-05-10T02:44:41.140Z,19.88
2018-05-10T02:45:40.871Z,19.85
2018-05-10T02:46:40.985Z,19.83
2018-05-10T02:47:41.103Z,19.87
2018-05-10T02:48:40.922Z,19.85
2018-05-10T02:49:41.135Z,19.83
2018-05-10T02:50:40.949Z,19.87
2018-05-10T02:51:40.914Z,19.85
2018-05-10T02:52:41.049Z,19.84
2018-05-10T02:53:40.999Z,19.87
2018-05-10T02:54:41.183Z,19.85
2018-05-10T02:55:41.001Z,19.84
2018-05-10T02:56:41.091Z,19.86
2018-05-10T02:57:41.107Z,19.85
2018-05-10T02:58:41.023Z,19.83
2018-05-10T02:59:40.894Z,19.87
2018-05-10T03:00:41.077Z,19.84
2018-05-10T03:01:41.466Z,19.83
2018-05-10T03:02:41.100Z,19.87
2018-05-10T03:03:40.972Z,19.84
2018-05-10T03:04:41.095Z,19.84
2018-05-10T03:05:40.964Z,19.87
2018-05-10T03:06:41.100Z,19.84
2018-05-10T03:07:40.997Z,19.84
2018-05-10T03:08:40.846Z,19.87
2018-05-10T03:09:40.982Z,19.84
2018-05-10T03:10:41.013Z,19.83
2018-05-10T03:11:40.872Z,19.86
2018-05-10T03:12:41.048Z,19.84
2018-05-10T03:13:40.894Z,19.83
2018-05-10T03:14:41.007Z,19.86
2018-05-10T03:15:41.023Z,19.83
2018-05-10T03:16:41.073Z,19.83
2018-05-10T03:17:40.922Z,19.86
2018-05-10T03:18:41.022Z,19.83
2018-05-10T03:19:40.849Z,19.83
2018-05-10T03:20:40.880Z,19.86
2018-05-10T03:21:40.940Z,19.84
2018-05-10T03:22:40.817Z,19.82
2018-05-10T03:23:40.952Z,19.85
2018-05-10T03:24:40.969Z,19.83
2018-05-10T03:25:41.017Z,19.82
2018-05-10T03:26:40.948Z,19.86
2018-05-10T03:27:40.850Z,19.83
2018-05-10T03:28:40.927Z,19.83
2018-05-10T03:29:41.070Z,19.86
2018-05-10T03:30:40.820Z,19.83
2018-05-10T03:31:41.076Z,19.83
2018-05-10T03:32:40.972Z,19.86
2018-05-10T03:33:41.161Z,19.83
2018-05-10T03:34:40.949Z,19.83
2018-05-10T03:35:40.835Z,19.86
2018-05-10T03:36:41.091Z,19.84
2018-05-10T03:37:40.962Z,19.82
2018-05-10T03:38:41.104Z,19.86
2018-05-10T03:39:41.074Z,19.83
2018-05-10T03:40:40.958Z,19.83
2018-05-10T03:41:40.831Z,19.85
2018-05-10T03:42:41.000Z,19.83
2018-05-10T03:43:41.097Z,19.82
2018-05-10T03:44:41.094Z,19.85
2018-05-10T03:45:40.901Z,19.83
2018-05-10T03:46:40.927Z,19.82
2018-05-10T03:47:41.126Z,19.86
2018-05-10T03:48:40.837Z,19.83
2018-05-10T03:49:41.059Z,19.83
2018-05-10T03:50:41.060Z,19.85
2018-05-10T03:51:41.050Z,19.84
2018-05-10T03:52:40.953Z,19.83
2018-05-10T03:53:40.897Z,19.86
2018-05-10T03:54:41.014Z,19.84
2018-05-10T03:55:41.000Z,19.83
2018-05-10T03:56:40.833Z,19.85
2018-05-10T03:57:41.121Z,19.83
2018-05-10T03:58:40.930Z,19.82
2018-05-10T03:59:40.931Z,19.86
2018-05-10T04:00:40.866Z,19.83
2018-05-10T04:01:41.113Z,19.82
2018-05-10T04:02:40.913Z,19.85
2018-05-10T04:03:40.911Z,19.82
2018-05-10T04:04:40.979Z,19.82
2018-05-10T04:05:41.101Z,19.85
2018-05-10T04:06:40.945Z,19.82
2018-05-10T04:07:40.975Z,19.82
2018-05-10T04:08:41.026Z,19.86
2018-05-10T04:09:41.098Z,19.83
2018-05-10T04:10:40.976Z,19.82
2018-05-10T04:11:40.959Z,19.85
2018-05-10T04:12:40.992Z,19.82
2018-05-10T04:13:40.951Z,19.82
2018-05-10T04:14:40.911Z,19.85
2018-05-10T04:15:40.941Z,19.83
2018-05-10T04:16:40.945Z,19.82
2018-05-10T04:17:40.887Z,19.85
2018-05-10T04:18:40.820Z,19.83
2018-05-10T04:19:40.907Z,19.82
2018-05-10T04:20:40.982Z,19.85
2018-05-10T04:21:40.850Z,19.82
2018-05-10T04:22:40.905Z,19.81
2018-05-10T04:23:41.087Z,19.85
2018-05-10T04:24:40.909Z,19.84
2018-05-10T04:25:40.843Z,19.82
2018-05-10T04:26:41.061Z,19.85
2018-05-10T04:27:40.887Z,19.83
2018-05-10T04:28:41.012Z,19.83
2018-05-10T04:29:40.917Z,19.85
2018-05-10T04:30:40.976Z,19.83
2018-05-10T04:31:40.922Z,19.82
2018-05-10T04:32:41.010Z,19.85
2018-05-10T04:33:40.899Z,19.83
2018-05-10T04:34:41.031Z,19.82
2018-05-10T04:35:41.230Z,19.86
2018-05-10T04:36:40.837Z,19.83
2018-05-10T04:37:41.030Z,19.82
2018-05-10T04:38:40.854Z,19.86
2018-05-10T04:39:40.890Z,19.83
2018-05-10T04:40:41.008Z,19.82
2018-05-10T04:41:40.874Z,19.85
2018-05-10T04:42:40.939Z,19.84
2018-05-10T04:43:40.880Z,19.83
2018-05-10T04:44:41.078Z,19.86
2018-05-10T04:45:40.978Z,19.83
2018-05-10T04:46:40.806Z,19.83
2018-05-10T04:47:40.802Z,19.86
2018-05-10T04:48:41.104Z,19.83
2018-05-10T04:49:41.074Z,19.82
2018-05-10T04:50:40.817Z,19.86
2018-05-10T04:51:40.897Z,19.83
2018-05-10T04:52:41.040Z,19.83
2018-05-10T04:53:41.010Z,19.86
2018-05-10T04:54:41.169Z,19.84
2018-05-10T04:55:40.877Z,19.83
2018-05-10T04:56:41.040Z,19.86
2018-05-10T04:57:40.973Z,19.83
2018-05-10T04:58:40.862Z,19.82
2018-05-10T04:59:40.953Z,19.86
2018-05-10T05:00:40.866Z,19.83
2018-05-10T05:01:40.834Z,19.83
2018-05-10T05:02:40.975Z,19.86
2018-05-10T05:03:40.859Z,19.83
2018-05-10T05:04:40.925Z,19.83
2018-05-10T05:05:41.058Z,19.85
2018-05-10T05:06:40.959Z,19.83
2018-05-10T05:07:40.982Z,19.82
2018-05-10T05:08:41.029Z,19.86
2018-05-10T05:09:40.811Z,19.84
2018-05-10T05:10:40.986Z,19.81
2018-05-10T05:11:40.920Z,19.86
2018-05-10T05:12:40.986Z,19.83
2018-05-10T05:13:40.877Z,19.82
2018-05-10T05:14:40.843Z,19.86
2018-05-10T05:15:40.875Z,19.83
2018-05-10T05:16:41.054Z,19.83
2018-05-10T05:17:40.962Z,19.85
2018-05-10T05:18:40.891Z,19.83
2018-05-10T05:19:40.969Z,19.83
2018-05-10T05:20:40.855Z,19.85
2018-05-10T05:21:40.989Z,19.82
2018-05-10T05:22:41.044Z,19.82
2018-05-10T05:23:41.094Z,19.86
2018-05-10T05:24:40.982Z,19.82
2018-05-10T05:25:40.861Z,19.83
2018-05-10T05:26:41.070Z,19.85
2018-05-10T05:27:40.873Z,19.83
2018-05-10T05:28:40.991Z,19.83
2018-05-10T05:29:40.886Z,19.86
2018-05-10T05:30:40.895Z,19.83
2018-05-10T05:31:40.820Z,19.82
2018-05-10T05:32:40.949Z,19.86
2018-05-10T05:33:40.986Z,19.83
2018-05-10T05:34:41.024Z,19.83
2018-05-10T05:35:40.981Z,19.85
2018-05-10T05:36:40.870Z,19.83
2018-05-10T05:37:40.855Z,19.83
2018-05-10T05:38:41.048Z,19.86
2018-05-10T05:39:41.015Z,19.83
2018-05-10T05:40:41.012Z,19.83
2018-05-10T05:41:40.996Z,19.87
2018-05-10T05:42:40.844Z,19.83
2018-05-10T05:43:40.873Z,19.82
2018-05-10T05:44:40.996Z,19.86
2018-05-10T05:45:41.093Z,19.85
2018-05-10T05:46:41.039Z,19.83
2018-05-10T05:47:41.167Z,19.86
2018-05-10T05:48:40.888Z,19.83
2018-05-10T05:49:40.840Z,19.82
2018-05-10T05:50:40.829Z,19.86
2018-05-10T05:51:40.918Z,19.84
2018-05-10T05:52:41.018Z,19.83
2018-05-10T05:53:40.744Z,19.87
2018-05-10T05:54:40.769Z,19.84
2018-05-10T05:55:40.915Z,19.83
2018-05-10T05:56:40.908Z,19.87
2018-05-10T05:57:40.927Z,19.85
2018-05-10T05:58:40.944Z,19.84
2018-05-10T05:59:40.841Z,19.87
2018-05-10T06:00:40.807Z,19.84
2018-05-10T06:01:41.009Z,19.84
2018-05-10T06:02:41.131Z,19.86
2018-05-10T06:03:41.009Z,19.84
2018-05-10T06:04:40.826Z,19.84
2018-05-10T06:05:41.166Z,19.87
2018-05-10T06:06:41.009Z,19.85
2018-05-10T06:07:40.827Z,19.84
2018-05-10T06:08:41.057Z,19.87
2018-05-10T06:09:40.886Z,19.85
2018-05-10T06:10:40.857Z,19.83
2018-05-10T06:11:40.978Z,19.87
2018-05-10T06:12:40.878Z,19.86
2018-05-10T06:13:41.322Z,19.85
2018-05-10T06:14:40.903Z,19.88
2018-05-10T06:15:40.739Z,19.85
2018-05-10T06:16:40.849Z,19.85
2018-05-10T06:17:40.868Z,19.87
2018-05-10T06:18:41.029Z,19.84
2018-05-10T06:19:41.009Z,19.84
2018-05-10T06:20:41.202Z,19.88
2018-05-10T06:21:40.943Z,19.85
2018-05-10T06:22:40.962Z,19.84
2018-05-10T06:23:41.121Z,19.88
2018-05-10T06:24:40.937Z,19.85
2018-05-10T06:25:40.953Z,19.85
2018-05-10T06:26:40.769Z,19.88
2018-05-10T06:27:40.931Z,19.85
2018-05-10T06:28:41.046Z,19.83
2018-05-10T06:29:40.908Z,19.88
2018-05-10T06:30:40.949Z,19.86
2018-05-10T06:31:41.020Z,19.84
2018-05-10T06:32:41.026Z,19.88
2018-05-10T06:33:40.902Z,19.85
2018-05-10T06:34:41.027Z,19.85
2018-05-10T06:35:40.920Z,19.88
2018-05-10T06:36:40.883Z,19.86
2018-05-10T06:37:40.762Z,19.85
2018-05-10T06:38:40.813Z,19.88
2018-05-10T06:39:40.905Z,19.86
2018-05-10T06:40:41.013Z,19.85
2018-05-10T06:41:40.991Z,19.87
2018-05-10T06:42:40.965Z,19.86
2018-05-10T06:43:40.992Z,19.85
2018-05-10T06:44:40.800Z,19.88
2018-05-10T06:45:40.919Z,19.85
2018-05-10T06:46:40.936Z,19.85
2018-05-10T06:47:40.851Z,19.88
2018-05-10T06:48:40.782Z,19.86
2018-05-10T06:49:40.895Z,19.85
2018-05-10T06:50:41.044Z,19.88
2018-05-10T06:51:41.045Z,19.86
2018-05-10T06:52:40.829Z,19.85
2018-05-10T06:53:40.979Z,19.88
2018-05-10T06:54:40.916Z,19.86
2018-05-10T06:55:40.815Z,19.85
2018-05-10T06:56:40.930Z,19.88
2018-05-10T06:57:40.829Z,19.85
2018-05-10T06:58:41.133Z,19.85
2018-05-10T06:59:50.812Z,19.89
2018-05-10T07:00:40.820Z,19.86
2018-05-10T07:01:40.998Z,19.85
2018-05-10T07:02:41.002Z,19.89
2018-05-10T07:03:41.047Z,19.86
2018-05-10T07:04:40.798Z,19.85
2018-05-10T07:05:40.995Z,19.88
2018-05-10T07:06:40.795Z,19.86
2018-05-10T07:07:41.011Z,19.84
2018-05-10T07:08:40.801Z,19.88
2018-05-10T07:09:41.021Z,19.86
2018-05-10T07:10:41.367Z,19.85
2018-05-10T07:11:40.750Z,19.89
2018-05-10T07:12:41.076Z,19.86
2018-05-10T07:13:40.805Z,19.85
2018-05-10T07:14:40.856Z,19.88
2018-05-10T07:15:41.220Z,19.85
2018-05-10T07:16:40.840Z,19.85
2018-05-10T07:17:40.945Z,19.88
2018-05-10T07:18:40.869Z,19.85
2018-05-10T07:19:41.001Z,19.85
2018-05-10T07:20:41.004Z,19.89
2018-05-10T07:21:40.943Z,19.85
2018-05-10T07:22:40.827Z,19.85
2018-05-10T07:23:40.941Z,19.87
2018-05-10T07:24:41.013Z,19.85
2018-05-10T07:25:41.004Z,19.85
2018-05-10T07:26:40.981Z,19.88
2018-05-10T07:27:40.717Z,19.86
2018-05-10T07:28:40.961Z,19.85
2018-05-10T07:29:40.976Z,19.89
2018-05-10T07:30:40.909Z,19.86
2018-05-10T07:31:40.837Z,19.84
2018-05-10T07:32:40.919Z,19.88
2018-05-10T07:33:40.958Z,19.85
2018-05-10T07:34:40.962Z,19.85
2018-05-10T07:35:40.896Z,19.88
2018-05-10T07:36:40.965Z,19.85
2018-05-10T07:37:41.042Z,19.85
2018-05-10T07:38:40.784Z,19.88
2018-05-10T07:39:40.769Z,19.86
2018-05-10T07:40:40.968Z,19.86
2018-05-10T07:41:40.989Z,19.89
2018-05-10T07:42:40.807Z,19.87
2018-05-10T07:43:40.847Z,19.86
2018-05-10T07:44:40.805Z,19.89
2018-05-10T07:45:40.811Z,19.87
2018-05-10T07:46:40.986Z,19.86
2018-05-10T07:47:40.766Z,19.88
2018-05-10T07:48:40.927Z,19.88
2018-05-10T07:49:40.780Z,19.87
2018-05-10T07:50:40.817Z,19.94
2018-05-10T07:51:40.842Z,19.96
2018-05-10T07:52:40.939Z,19.95
2018-05-10T07:53:40.910Z,19.98
2018-05-10T07:54:41.029Z,19.98
2018-05-10T07:55:40.846Z,19.97
2018-05-10T07:56:40.713Z,20.02
2018-05-10T07:57:40.809Z,20.02
2018-05-10T07:58:40.942Z,20
2018-05-10T07:59:40.906Z,20.03
2018-05-10T08:00:40.842Z,20.03
2018-05-10T08:01:40.997Z,20.03
2018-05-10T08:02:40.844Z,20.07
2018-05-10T08:03:40.988Z,20.05
2018-05-10T08:04:40.918Z,20.05
2018-05-10T08:05:41.024Z,20.08
2018-05-10T08:06:40.920Z,20.07
2018-05-10T08:07:40.719Z,20.06
2018-05-10T08:08:40.872Z,20.11
2018-05-10T08:09:40.895Z,20.07
2018-05-10T08:10:41.016Z,20.07
2018-05-10T08:11:40.845Z,20.1
2018-05-10T08:12:40.948Z,20.1
2018-05-10T08:13:40.874Z,20.07
2018-05-10T08:14:40.983Z,20.09
2018-05-10T08:15:40.880Z,20.07
2018-05-10T08:16:41.034Z,20.06
2018-05-10T08:17:40.875Z,20.09
2018-05-10T08:18:40.871Z,20.08
2018-05-10T08:19:40.923Z,20.06
2018-05-10T08:20:41.000Z,20.08
2018-05-10T08:21:41.019Z,20.07
2018-05-10T08:22:40.911Z,20.07
2018-05-10T08:23:40.870Z,20.09
2018-05-10T08:24:41.078Z,20.07
2018-05-10T08:25:40.792Z,20.06
2018-05-10T08:26:40.964Z,20.09
2018-05-10T08:27:40.903Z,20.08
2018-05-10T08:28:41.065Z,20.06
2018-05-10T08:29:41.036Z,20.09
2018-05-10T08:30:41.057Z,20.07
2018-05-10T08:31:40.896Z,20.07
2018-05-10T08:32:40.819Z,20.09
2018-05-10T08:33:41.002Z,20.06
2018-05-10T08:34:40.873Z,20.04
2018-05-10T08:35:41.185Z,20.1
2018-05-10T08:36:40.838Z,20.09
2018-05-10T08:37:40.766Z,20.1
2018-05-10T08:38:40.946Z,20.12
2018-05-10T08:39:41.028Z,20.08
2018-05-10T08:40:40.828Z,20.07
2018-05-10T08:41:40.902Z,20.11
2018-05-10T08:42:40.920Z,20.06
2018-05-10T08:43:40.979Z,20.04
2018-05-10T08:44:40.823Z,20.09
2018-05-10T08:45:40.798Z,20.04
2018-05-10T08:46:40.974Z,20.02
2018-05-10T08:47:40.855Z,20.07
2018-05-10T08:48:40.970Z,20.04
2018-05-10T08:49:40.851Z,20.01
2018-05-10T08:50:40.955Z,20.05
2018-05-10T08:51:40.776Z,20.03
2018-05-10T08:52:40.994Z,20
2018-05-10T08:53:40.813Z,20.04
2018-05-10T08:54:40.944Z,20.01
2018-05-10T08:55:40.930Z,19.98
2018-05-10T08:56:40.762Z,20.02
2018-05-10T08:57:40.807Z,19.99
2018-05-10T08:59:00.815Z,19.98
2018-05-10T08:59:40.952Z,20.02
2018-05-10T09:00:40.924Z,19.99
2018-05-10T09:01:40.956Z,19.98
2018-05-10T09:02:40.779Z,19.96
2018-05-10T09:03:40.790Z,19.93
2018-05-10T09:04:41.172Z,19.9
2018-05-10T09:05:40.848Z,19.9
2018-05-10T09:06:41.085Z,19.88
2018-05-10T09:07:40.772Z,19.87
2018-05-10T09:08:40.892Z,19.88
2018-05-10T09:09:40.922Z,19.88
2018-05-10T09:10:40.946Z,19.87
2018-05-10T09:11:40.887Z,19.89
2018-05-10T09:12:40.720Z,19.88
2018-05-10T09:13:40.828Z,19.89
2018-05-10T09:14:40.924Z,19.91
2018-05-10T09:15:40.840Z,19.91
2018-05-10T09:16:41.020Z,19.91
2018-05-10T09:17:40.928Z,19.94
2018-05-10T09:18:40.913Z,19.94
2018-05-10T09:19:41.012Z,19.94
2018-05-10T09:20:41.006Z,19.97
2018-05-10T09:21:41.149Z,19.96
2018-05-10T09:22:41.027Z,19.97
2018-05-10T09:23:40.847Z,19.99
2018-05-10T09:24:41.075Z,19.99
2018-05-10T09:25:40.882Z,20.02
2018-05-10T09:27:10.828Z,20.02
2018-05-10T09:27:40.977Z,20.02
2018-05-10T09:28:41.077Z,20.03
2018-05-10T09:29:40.894Z,20.04
2018-05-10T09:30:41.025Z,20.05
2018-05-10T09:31:40.926Z,20.04
2018-05-10T09:32:40.822Z,20.07
2018-05-10T09:33:40.803Z,20.06
2018-05-10T09:34:40.943Z,20.07
2018-05-10T09:35:40.809Z,20.09
2018-05-10T09:36:41.191Z,20.09
2018-05-10T09:37:40.848Z,20.08
2018-05-10T09:38:43.286Z,20.12
2018-05-10T09:39:41.046Z,20.11
2018-05-10T09:40:40.863Z,20.12
2018-05-10T09:41:40.845Z,20.14
2018-05-10T09:42:40.796Z,20.13
2018-05-10T09:43:41.039Z,20.14
2018-05-10T09:44:41.024Z,20.16
2018-05-10T09:45:40.985Z,20.14
2018-05-10T09:46:40.937Z,20.17
2018-05-10T09:47:40.909Z,20.2
2018-05-10T09:48:41.108Z,20.19
2018-05-10T09:49:40.900Z,20.2
2018-05-10T09:50:40.815Z,20.22
2018-05-10T09:51:40.920Z,20.23
2018-05-10T09:52:40.917Z,20.22
2018-05-10T09:53:41.173Z,20.23
2018-05-10T09:54:40.786Z,20.22
2018-05-10T09:55:40.986Z,20.24
2018-05-10T09:56:40.843Z,20.27
2018-05-10T09:57:41.254Z,20.24
2018-05-10T09:58:40.833Z,20.26
2018-05-10T09:59:41.097Z,20.27
2018-05-10T10:00:40.886Z,20.28
2018-05-10T10:01:41.018Z,20.28
2018-05-10T10:02:41.074Z,20.3
2018-05-10T10:03:40.775Z,20.28
2018-05-10T10:04:40.952Z,20.27
2018-05-10T10:05:40.843Z,20.3
2018-05-10T10:06:41.056Z,20.28
2018-05-10T10:07:40.926Z,20.27
2018-05-10T10:08:40.959Z,20.29
2018-05-10T10:09:40.894Z,20.29
2018-05-10T10:10:41.059Z,20.28
2018-05-10T10:11:40.917Z,20.28
2018-05-10T10:12:40.768Z,20.28
2018-05-10T10:13:40.726Z,20.28
2018-05-10T10:14:40.938Z,20.3
2018-05-10T10:15:20.604Z,20.4
2018-05-10T10:16:20.534Z,20.69
2018-05-10T10:17:20.790Z,20.84
2018-05-10T10:18:20.786Z,20.73
2018-05-10T10:19:20.656Z,20.75
2018-05-10T10:20:20.808Z,20.72
2018-05-10T10:21:20.651Z,20.72
2018-05-10T10:22:20.619Z,20.73
2018-05-10T10:23:20.670Z,20.71
2018-05-10T10:24:20.779Z,20.73
2018-05-10T10:25:20.795Z,20.72
2018-05-10T10:26:20.587Z,20.74
2018-05-10T10:27:20.666Z,20.74
2018-05-10T10:28:20.737Z,20.76
2018-05-10T10:29:20.597Z,20.78
2018-05-10T10:30:20.652Z,20.78
2018-05-10T10:31:20.711Z,20.79
2018-05-10T10:32:20.757Z,20.79
2018-05-10T10:33:20.756Z,20.82
2018-05-10T10:34:20.757Z,20.85
2018-05-10T10:35:20.687Z,20.85
2018-05-10T10:36:20.770Z,20.9
2018-05-10T10:37:20.933Z,20.95
2018-05-10T10:38:20.755Z,20.97
2018-05-10T10:39:20.675Z,21.01
2018-05-10T10:40:20.783Z,21.01
2018-05-10T10:41:20.497Z,21.01
2018-05-10T10:42:20.630Z,21
2018-05-10T10:43:20.745Z,21.02
2018-05-10T10:44:20.669Z,21.03
2018-05-10T10:45:20.656Z,20.96
2018-05-10T10:46:20.760Z,20.96
2018-05-10T10:47:20.795Z,20.93
2018-05-10T10:48:20.840Z,20.92
2018-05-10T10:49:20.887Z,20.9
2018-05-10T10:50:20.686Z,20.86
2018-05-10T10:51:20.423Z,20.83
2018-05-10T10:52:20.752Z,20.82
2018-05-10T10:53:20.750Z,20.79
2018-05-10T10:54:20.765Z,20.77
2018-05-10T10:55:20.669Z,20.77
2018-05-10T10:56:20.616Z,20.75
2018-05-10T10:57:20.807Z,20.73
2018-05-10T10:58:20.751Z,20.71
2018-05-10T10:59:20.832Z,20.7
2018-05-10T11:00:20.601Z,20.68
2018-05-10T11:01:20.713Z,20.68
2018-05-10T11:02:20.495Z,20.66
2018-05-10T11:03:20.897Z,20.65
2018-05-10T11:04:20.662Z,20.82
2018-05-10T11:05:20.569Z,20.78
2018-05-10T11:06:20.763Z,20.81
2018-05-10T11:07:20.807Z,20.82
2018-05-10T11:08:20.700Z,20.88
2018-05-10T11:09:20.690Z,20.85
2018-05-10T11:10:20.863Z,20.88
2018-05-10T11:11:20.860Z,20.87
2018-05-10T11:12:20.650Z,20.86
2018-05-10T11:13:20.653Z,20.88
2018-05-10T11:14:20.693Z,20.88
2018-05-10T11:15:20.526Z,20.87
2018-05-10T11:16:20.562Z,20.89
2018-05-10T11:17:20.874Z,20.89
2018-05-10T11:18:20.750Z,20.87
2018-05-10T11:19:20.738Z,20.91
2018-05-10T11:20:20.699Z,20.89
2018-05-10T11:21:20.655Z,20.9
2018-05-10T11:22:20.537Z,20.91
2018-05-10T11:23:20.650Z,20.91
2018-05-10T11:24:20.762Z,20.92
2018-05-10T11:25:20.583Z,20.93
2018-05-10T11:26:20.626Z,20.93
2018-05-10T11:27:20.840Z,20.96
2018-05-10T11:28:20.639Z,20.96
2018-05-10T11:29:20.651Z,20.95
2018-05-10T11:30:20.800Z,20.94
2018-05-10T11:31:20.780Z,20.96
2018-05-10T11:32:20.618Z,20.95
2018-05-10T11:33:20.601Z,20.96
2018-05-10T11:34:20.648Z,20.97
2018-05-10T11:35:20.794Z,20.99
2018-05-10T11:36:20.808Z,20.96
2018-05-10T11:37:20.783Z,20.98
2018-05-10T11:38:20.633Z,20.97
2018-05-10T11:39:20.652Z,20.96
2018-05-10T11:40:20.539Z,20.98
2018-05-10T11:41:20.572Z,20.98
2018-05-10T11:42:20.642Z,20.97
2018-05-10T11:43:20.585Z,20.99
2018-05-10T11:44:20.640Z,20.98
2018-05-10T11:45:20.535Z,20.95
2018-05-10T11:46:20.652Z,20.98
2018-05-10T11:47:20.560Z,20.98
2018-05-10T11:48:20.723Z,20.96
2018-05-10T11:49:20.720Z,20.99
2018-05-10T11:50:20.592Z,20.98
2018-05-10T11:51:20.522Z,20.96
2018-05-10T11:52:20.692Z,20.97
2018-05-10T11:53:20.617Z,20.98
2018-05-10T11:54:20.556Z,20.94
2018-05-10T11:55:20.584Z,20.96
2018-05-10T11:56:20.570Z,20.99
2018-05-10T11:57:20.664Z,20.96
2018-05-10T11:58:20.667Z,20.95
2018-05-10T11:59:20.626Z,20.93
2018-05-10T12:00:20.600Z,20.91
2018-05-10T12:01:20.727Z,20.9
2018-05-10T12:02:20.760Z,20.87
2018-05-10T12:03:20.687Z,20.86
2018-05-10T12:04:20.595Z,20.85
2018-05-10T12:05:20.607Z,20.83
2018-05-10T12:06:20.477Z,20.81
2018-05-10T12:07:20.525Z,20.82
2018-05-10T12:08:20.837Z,20.79
2018-05-10T12:09:20.674Z,20.77
2018-05-10T12:10:20.603Z,20.76
2018-05-10T12:11:20.796Z,20.75
2018-05-10T12:12:20.760Z,20.74
2018-05-10T12:13:20.499Z,20.74
2018-05-10T12:14:20.765Z,20.72
2018-05-10T12:15:20.668Z,20.71
2018-05-10T12:16:20.525Z,20.71
2018-05-10T12:17:20.601Z,20.72
2018-05-10T12:18:20.471Z,20.73
2018-05-10T12:19:20.696Z,20.79
2018-05-10T12:20:20.691Z,20.8
2018-05-10T12:21:20.462Z,20.82
2018-05-10T12:22:20.685Z,20.83
2018-05-10T12:23:20.659Z,20.84
2018-05-10T12:24:20.498Z,20.86
2018-05-10T12:25:20.463Z,20.87
2018-05-10T12:26:20.668Z,20.9
2018-05-10T12:27:20.657Z,20.93
2018-05-10T12:28:20.603Z,21.08
2018-05-10T12:29:20.692Z,21
2018-05-10T12:30:20.506Z,20.97
2018-05-10T12:31:20.519Z,20.94
2018-05-10T12:32:20.819Z,20.92
2018-05-10T12:33:20.653Z,20.91
2018-05-10T12:34:20.468Z,20.9
2018-05-10T12:35:20.721Z,20.9
2018-05-10T12:36:20.669Z,20.9
2018-05-10T12:37:20.611Z,20.89
2018-05-10T12:38:20.694Z,20.89
2018-05-10T12:39:20.620Z,20.9
2018-05-10T12:40:20.777Z,20.89
2018-05-10T12:41:20.660Z,20.9
2018-05-10T12:42:20.528Z,20.9
2018-05-10T12:43:20.591Z,20.9
2018-05-10T12:44:20.612Z,20.91
2018-05-10T12:45:20.602Z,20.92
2018-05-10T12:46:20.758Z,20.93
2018-05-10T12:47:20.653Z,20.93
2018-05-10T12:48:20.818Z,20.94
2018-05-10T12:49:20.786Z,20.94
2018-05-10T12:50:20.667Z,20.93
2018-05-10T12:51:20.728Z,20.94
2018-05-10T12:52:20.534Z,20.91
2018-05-10T12:53:20.738Z,20.9
2018-05-10T12:54:20.610Z,20.87